createdAt,value
2023-02-09T00:00:33.995Z,11.45
2023-02-09T00:03:01.334Z,13.55
2023-02-09T00:05:38.205Z,11.77
2023-02-09T00:08:16.676Z,11.17
2023-02-09T00:10:46.823Z,9.35
2023-02-09T00:13:24.845Z,13.55
2023-02-09T00:16:01.561Z,8.32
2023-02-09T00:18:31.704Z,10.57
2023-02-09T00:21:11.709Z,8.17
2023-02-09T00:23:41.698Z,10.35
2023-02-09T00:26:16.950Z,11.35
2023-02-09T00:28:45.173Z,11.40
2023-02-09T00:31:13.791Z,10.93
2023-02-09T00:33:41.571Z,7.20
2023-02-09T00:36:13.240Z,10.40
2023-02-09T00:38:44.957Z,9.18
2023-02-09T00:41:16.059Z,7.40
2023-02-09T00:43:46.174Z,10.57
2023-02-09T00:46:14.825Z,9.77
2023-02-09T00:48:52.941Z,11.52
2023-02-09T00:51:21.408Z,9.60
2023-02-09T00:53:51.131Z,8.85
2023-02-09T00:56:21.033Z,9.85
2023-02-09T00:58:53.310Z,8.00
2023-02-09T01:01:20.759Z,8.88
2023-02-09T01:03:48.098Z,10.07
2023-02-09T01:06:21.409Z,7.13
2023-02-09T01:08:51.280Z,6.32
2023-02-09T01:11:25.700Z,9.47
2023-02-09T01:14:06.525Z,8.80
2023-02-09T01:16:36.934Z,5.72
2023-02-09T01:19:04.412Z,8.40
2023-02-09T01:21:34.712Z,6.47
2023-02-09T01:24:13.415Z,7.40
2023-02-09T01:26:48.773Z,7.47
2023-02-09T01:29:19.797Z,6.75
2023-02-09T01:31:51.957Z,8.63
2023-02-09T01:34:21.509Z,8.77
2023-02-09T01:36:51.615Z,4.90
2023-02-09T01:39:18.882Z,8.50
2023-02-09T01:41:46.390Z,6.93
2023-02-09T01:44:16.265Z,8.35
2023-02-09T01:46:47.601Z,7.10
2023-02-09T01:49:20.786Z,8.20
2023-02-09T01:52:04.991Z,9.05
2023-02-09T01:55:03.426Z,8.60
2023-02-09T01:57:43.930Z,11.73
2023-02-09T02:00:18.165Z,7.32
2023-02-09T02:03:00.560Z,8.20
2023-02-09T02:05:31.105Z,9.55
2023-02-09T02:08:09.877Z,10.05
2023-02-09T02:10:39.783Z,10.02
2023-02-09T02:13:11.793Z,9.27
2023-02-09T02:16:07.232Z,9.87
2023-02-09T02:19:13.783Z,11.25
2023-02-09T02:22:06.850Z,8.55
2023-02-09T02:25:13.095Z,11.80
2023-02-09T02:27:47.027Z,8.85
2023-02-09T02:31:07.958Z,6.27
2023-02-09T02:34:23.086Z,4.25
2023-02-09T02:36:58.988Z,6.10
2023-02-09T02:40:07.301Z,5.60
2023-02-09T02:42:55.744Z,7.53
2023-02-09T02:45:37.983Z,10.37
2023-02-09T02:48:29.344Z,6.57
2023-02-09T02:51:11.052Z,9.25
2023-02-09T02:53:55.461Z,11.70
2023-02-09T02:56:40.550Z,7.78
2023-02-09T02:59:13.498Z,7.23
2023-02-09T03:01:47.847Z,9.90
2023-02-09T03:04:16.623Z,8.20
2023-02-09T03:06:43.812Z,7.00
2023-02-09T03:09:11.234Z,11.10
2023-02-09T03:11:43.123Z,5.83
2023-02-09T03:14:45.761Z,6.00
2023-02-09T03:17:50.592Z,8.80
2023-02-09T03:20:28.075Z,10.40
2023-02-09T03:23:02.454Z,7.47
2023-02-09T03:25:40.387Z,6.60
2023-02-09T03:28:10.585Z,8.95
2023-02-09T03:30:42.060Z,9.40
2023-02-09T03:33:25.997Z,8.63
2023-02-09T03:35:59.264Z,9.18
2023-02-09T03:38:32.440Z,7.93
2023-02-09T03:40:59.910Z,10.27
2023-02-09T03:44:04.545Z,9.07
2023-02-09T03:46:35.295Z,5.82
2023-02-09T03:49:02.864Z,7.55
2023-02-09T03:51:32.684Z,6.67
2023-02-09T03:54:04.243Z,7.13
2023-02-09T03:56:37.683Z,9.73
2023-02-09T03:59:09.140Z,6.30
2023-02-09T04:01:39.105Z,6.85
2023-02-09T04:04:10.756Z,11.40
2023-02-09T04:06:39.392Z,8.43
2023-02-09T04:09:09.296Z,6.00
2023-02-09T04:11:36.897Z,7.43
2023-02-09T04:14:17.944Z,8.50
2023-02-09T04:16:47.851Z,6.10
2023-02-09T04:19:17.214Z,14.02
2023-02-09T04:21:44.663Z,7.63
2023-02-09T04:24:15.342Z,7.25
2023-02-09T04:26:45.843Z,9.65
2023-02-09T04:29:18.043Z,5.37
2023-02-09T04:31:46.551Z,12.25
2023-02-09T04:34:18.900Z,8.00
2023-02-09T04:36:49.705Z,8.15
2023-02-09T04:39:21.115Z,9.30
2023-02-09T04:41:57.348Z,10.73
2023-02-09T04:44:34.547Z,8.93
2023-02-09T04:47:06.118Z,9.77
2023-02-09T04:49:43.587Z,8.85
2023-02-09T04:52:12.072Z,9.90
2023-02-09T04:54:44.722Z,7.83
2023-02-09T04:57:35.218Z,8.07
2023-02-09T05:00:05.703Z,9.88
2023-02-09T05:02:33.148Z,6.50
2023-02-09T05:05:00.498Z,8.52
2023-02-09T05:07:37.504Z,6.00
2023-02-09T05:10:07.785Z,9.43
2023-02-09T05:12:43.545Z,12.25
2023-02-09T05:15:14.216Z,8.55
2023-02-09T05:17:41.834Z,10.23
2023-02-09T05:20:17.411Z,8.97
2023-02-09T05:22:54.559Z,6.47
2023-02-09T05:25:24.943Z,11.18
2023-02-09T05:27:52.421Z,6.88
2023-02-09T05:30:29.283Z,8.85
2023-02-09T05:32:56.736Z,7.33
2023-02-09T05:35:35.579Z,9.25
2023-02-09T05:38:07.831Z,10.90
2023-02-09T05:40:37.764Z,10.30
2023-02-09T05:43:07.265Z,9.23
2023-02-09T05:45:34.620Z,10.87
2023-02-09T05:48:02.058Z,10.82
2023-02-09T05:50:29.525Z,9.70
2023-02-09T05:53:00.228Z,13.18
2023-02-09T05:55:29.234Z,11.70
2023-02-09T05:58:00.990Z,8.73
2023-02-09T06:00:31.879Z,10.43
2023-02-09T06:03:04.711Z,8.02
2023-02-09T06:05:38.319Z,8.80
2023-02-09T06:08:08.956Z,9.13
2023-02-09T06:10:38.671Z,7.87
2023-02-09T06:13:11.146Z,6.85
2023-02-09T06:15:44.604Z,9.27
2023-02-09T06:18:14.372Z,10.18
2023-02-09T06:20:41.668Z,9.00
2023-02-09T06:23:18.427Z,8.60
2023-02-09T06:25:53.221Z,13.70
2023-02-09T06:28:30.294Z,14.60
2023-02-09T06:31:01.930Z,10.38
2023-02-09T06:33:31.996Z,15.93
2023-02-09T06:36:03.528Z,8.20
2023-02-09T06:38:42.371Z,7.70
2023-02-09T06:41:17.464Z,11.82
2023-02-09T06:44:18.424Z,9.23
2023-02-09T06:46:51.744Z,10.45
2023-02-09T06:49:28.613Z,13.80
2023-02-09T06:52:16.356Z,13.25
2023-02-09T06:54:51.077Z,11.65
2023-02-09T06:57:35.249Z,6.75
2023-02-09T07:00:22.894Z,11.73
2023-02-09T07:02:56.456Z,6.73
2023-02-09T07:05:34.374Z,7.35
2023-02-09T07:08:09.498Z,7.18
2023-02-09T07:10:46.272Z,8.30
2023-02-09T07:13:28.468Z,11.25
2023-02-09T07:16:06.106Z,11.40
2023-02-09T07:18:37.108Z,10.23
2023-02-09T07:21:11.835Z,8.50
2023-02-09T07:23:40.726Z,8.18
2023-02-09T07:26:16.077Z,9.68
2023-02-09T07:28:51.549Z,11.13
2023-02-09T07:31:21.589Z,14.07
2023-02-09T07:33:56.797Z,11.68
2023-02-09T07:36:25.293Z,10.23
2023-02-09T07:38:52.568Z,15.05
2023-02-09T07:41:25.357Z,11.53
2023-02-09T07:43:52.995Z,9.77
2023-02-09T07:46:25.654Z,12.52
2023-02-09T07:48:53.000Z,10.88
2023-02-09T07:51:28.294Z,16.75
2023-02-09T07:53:57.785Z,12.80
2023-02-09T07:56:28.122Z,12.18
2023-02-09T07:58:56.619Z,9.70
2023-02-09T08:01:24.810Z,9.98
2023-02-09T08:03:52.536Z,8.75
2023-02-09T08:06:40.705Z,13.60
2023-02-09T08:09:10.860Z,9.80
2023-02-09T08:12:03.020Z,12.82
2023-02-09T08:14:44.227Z,10.32
2023-02-09T08:17:22.368Z,13.65
2023-02-09T08:20:04.212Z,14.97
2023-02-09T08:22:38.954Z,18.67
2023-02-09T08:25:18.698Z,14.18
2023-02-09T08:27:47.443Z,14.32
2023-02-09T08:30:17.777Z,16.85
2023-02-09T08:32:47.180Z,12.20
2023-02-09T08:35:17.003Z,11.27
2023-02-09T08:37:44.328Z,12.98
2023-02-09T08:40:13.998Z,17.13
2023-02-09T08:42:48.821Z,16.67
2023-02-09T08:45:16.397Z,14.07
2023-02-09T08:47:43.845Z,17.88
2023-02-09T08:50:11.206Z,16.08
2023-02-09T08:52:38.457Z,15.45
2023-02-09T08:55:09.207Z,22.75
2023-02-09T08:57:44.066Z,12.03
2023-02-09T09:00:13.370Z,11.40
2023-02-09T09:02:40.859Z,12.30
2023-02-09T09:05:08.863Z,12.88
2023-02-09T09:07:36.203Z,12.13
2023-02-09T09:10:08.983Z,14.35
2023-02-09T09:12:36.561Z,11.25
2023-02-09T09:15:05.295Z,11.85
2023-02-09T09:17:33.001Z,14.80
2023-02-09T09:20:02.295Z,13.25
2023-02-09T09:22:35.052Z,13.25
2023-02-09T09:25:03.465Z,12.98
2023-02-09T09:27:32.833Z,11.60
2023-02-09T09:30:00.161Z,12.80
2023-02-09T09:32:28.501Z,9.18
2023-02-09T09:34:58.932Z,9.82
2023-02-09T09:37:29.275Z,14.13
2023-02-09T09:39:56.785Z,12.82
2023-02-09T09:42:49.215Z,10.32
2023-02-09T09:45:21.904Z,10.02
2023-02-09T09:47:49.459Z,10.18
2023-02-09T09:50:26.410Z,13.25
2023-02-09T09:53:33.205Z,16.38
2023-02-09T09:56:07.642Z,10.07
2023-02-09T09:58:39.770Z,14.38
2023-02-09T10:01:15.220Z,11.15
2023-02-09T10:03:43.081Z,8.63
2023-02-09T10:06:22.614Z,14.27
2023-02-09T10:08:55.964Z,12.57
2023-02-09T10:11:42.665Z,13.05
2023-02-09T10:14:10.767Z,12.35
2023-02-09T10:16:38.384Z,13.13
2023-02-09T10:19:21.546Z,11.73
2023-02-09T10:21:51.754Z,14.70
2023-02-09T10:24:32.593Z,12.05
2023-02-09T10:27:05.337Z,12.18
2023-02-09T10:29:32.554Z,12.85
2023-02-09T10:32:14.976Z,11.30
2023-02-09T10:34:54.886Z,12.98
2023-02-09T10:37:34.339Z,10.60
2023-02-09T10:40:15.499Z,11.77
2023-02-09T10:42:59.677Z,13.90
2023-02-09T10:45:42.773Z,11.77
2023-02-09T10:48:12.985Z,11.20
2023-02-09T10:51:06.065Z,12.93
2023-02-09T10:53:40.533Z,13.23
2023-02-09T10:56:25.181Z,13.80
2023-02-09T10:59:12.893Z,13.75
2023-02-09T11:01:43.259Z,14.27
2023-02-09T11:04:16.505Z,11.88
2023-02-09T11:07:01.524Z,13.50
2023-02-09T11:09:55.694Z,11.93
2023-02-09T11:12:24.818Z,18.08
2023-02-09T11:14:51.851Z,13.95
2023-02-09T11:17:26.530Z,15.90
2023-02-09T11:20:30.805Z,14.60
2023-02-09T11:23:12.377Z,16.00
2023-02-09T11:25:54.771Z,14.13
2023-02-09T11:29:08.586Z,13.50
2023-02-09T11:32:20.014Z,14.35
2023-02-09T11:35:12.706Z,12.35
2023-02-09T11:37:45.556Z,14.63
2023-02-09T11:40:33.403Z,21.65
2023-02-09T11:43:25.347Z,18.85
2023-02-09T11:45:58.719Z,17.15
2023-02-09T11:48:34.691Z,15.25
2023-02-09T11:51:20.085Z,18.15
2023-02-09T11:53:59.891Z,19.88
2023-02-09T11:56:29.113Z,17.02
2023-02-09T11:59:32.179Z,16.23
2023-02-09T12:02:47.462Z,14.45
2023-02-09T12:05:19.879Z,14.93
2023-02-09T12:08:01.950Z,23.65
2023-02-09T12:11:04.058Z,16.88
2023-02-09T12:14:00.872Z,17.42
2023-02-09T12:16:35.095Z,20.00
2023-02-09T12:19:04.511Z,19.45
2023-02-09T12:21:38.226Z,17.05
2023-02-09T12:24:33.114Z,13.93
2023-02-09T12:27:00.391Z,21.92
2023-02-09T12:29:39.319Z,19.42
2023-02-09T12:32:06.681Z,20.07
2023-02-09T12:34:52.376Z,23.60
2023-02-09T12:37:29.266Z,18.92
2023-02-09T12:40:11.527Z,19.52
2023-02-09T12:42:53.994Z,22.38
2023-02-09T12:45:43.644Z,20.40
2023-02-09T12:48:19.995Z,17.70
2023-02-09T12:50:53.907Z,27.05
2023-02-09T12:53:33.030Z,20.52
2023-02-09T12:56:09.508Z,19.60
2023-02-09T12:58:45.887Z,20.63
2023-02-09T13:01:16.211Z,23.42
2023-02-09T13:04:07.917Z,23.05
2023-02-09T13:06:51.635Z,22.92
2023-02-09T13:09:40.990Z,21.25
2023-02-09T13:12:20.379Z,23.07
2023-02-09T13:14:50.882Z,20.77
2023-02-09T13:17:48.919Z,23.20
2023-02-09T13:20:34.732Z,23.45
2023-02-09T13:23:20.596Z,23.05
2023-02-09T13:25:48.323Z,24.70
2023-02-09T13:28:19.818Z,20.10
2023-02-09T13:30:47.637Z,25.13
2023-02-09T13:33:51.455Z,19.52
2023-02-09T13:36:45.660Z,23.45
2023-02-09T13:39:26.078Z,21.63
2023-02-09T13:41:54.819Z,22.35
2023-02-09T13:44:32.020Z,20.58
2023-02-09T13:47:02.079Z,22.60
2023-02-09T13:49:30.587Z,24.25
2023-02-09T13:52:21.254Z,24.23
2023-02-09T13:54:48.440Z,22.77
2023-02-09T13:58:07.168Z,26.40
2023-02-09T14:00:44.769Z,21.67
2023-02-09T14:03:25.870Z,22.08
2023-02-09T14:06:20.415Z,24.87
2023-02-09T14:08:50.860Z,21.92
2023-02-09T14:11:43.387Z,23.60
2023-02-09T14:14:25.007Z,22.02
2023-02-09T14:17:24.366Z,21.25
2023-02-09T14:19:54.377Z,25.40
2023-02-09T14:22:31.283Z,24.52
2023-02-09T14:24:59.144Z,26.23
2023-02-09T14:27:33.078Z,27.98
2023-02-09T14:30:01.330Z,29.13
2023-02-09T14:32:36.732Z,23.37
2023-02-09T14:35:19.491Z,26.30
2023-02-09T14:37:48.302Z,26.52
2023-02-09T14:40:26.751Z,25.00
2023-02-09T14:43:25.140Z,24.25
2023-02-09T14:46:01.859Z,20.60
2023-02-09T14:48:31.373Z,25.27
2023-02-09T14:51:01.908Z,20.92
2023-02-09T14:53:31.908Z,25.35
2023-02-09T14:55:59.453Z,29.48
2023-02-09T14:58:29.590Z,27.15
2023-02-09T15:01:00.736Z,26.05
2023-02-09T15:03:28.906Z,23.10
2023-02-09T15:06:01.340Z,24.58
2023-02-09T15:08:36.005Z,22.58
2023-02-09T15:11:29.639Z,23.53
2023-02-09T15:14:03.749Z,22.45
2023-02-09T15:16:32.024Z,26.42
2023-02-09T15:18:59.351Z,26.88
2023-02-09T15:21:26.586Z,24.02
2023-02-09T15:23:53.745Z,26.17
2023-02-09T15:26:22.940Z,23.30
2023-02-09T15:28:50.347Z,25.13
2023-02-09T15:31:17.829Z,25.00
2023-02-09T15:33:45.400Z,21.27
2023-02-09T15:36:18.903Z,23.17
2023-02-09T15:38:47.931Z,25.25
2023-02-09T15:41:36.102Z,26.15
2023-02-09T15:44:39.070Z,23.40
2023-02-09T15:47:25.108Z,24.15
2023-02-09T15:49:52.265Z,22.77
2023-02-09T15:52:19.690Z,28.73
2023-02-09T15:54:47.470Z,24.55
2023-02-09T15:57:15.660Z,24.58
2023-02-09T15:59:42.783Z,23.60
2023-02-09T16:02:15.062Z,22.27
2023-02-09T16:04:42.562Z,26.33
2023-02-09T16:07:22.944Z,24.88
2023-02-09T16:09:50.281Z,30.13
2023-02-09T16:12:17.438Z,25.70
2023-02-09T16:14:44.616Z,27.17
2023-02-09T16:17:11.763Z,24.23
2023-02-09T16:19:39.840Z,27.00
2023-02-09T16:22:07.863Z,25.80
2023-02-09T16:24:47.691Z,23.65
2023-02-09T16:27:24.117Z,26.67
2023-02-09T16:29:51.489Z,22.40
2023-02-09T16:32:22.669Z,26.83
2023-02-09T16:34:51.157Z,27.55
2023-02-09T16:37:28.172Z,23.30
2023-02-09T16:39:56.213Z,30.27
2023-02-09T16:42:25.449Z,28.05
2023-02-09T16:44:53.281Z,31.45
2023-02-09T16:47:25.227Z,26.35
2023-02-09T16:50:00.859Z,25.38
2023-02-09T16:52:30.276Z,23.90
2023-02-09T16:55:00.926Z,23.63
2023-02-09T16:57:29.214Z,22.85
2023-02-09T16:59:56.787Z,25.83
2023-02-09T17:02:37.153Z,29.08
2023-02-09T17:05:32.365Z,30.02
2023-02-09T17:08:07.973Z,25.58
2023-02-09T17:10:35.972Z,25.10
2023-02-09T17:13:04.828Z,25.33
2023-02-09T17:15:41.708Z,26.70
2023-02-09T17:18:16.009Z,22.00
2023-02-09T17:20:50.321Z,25.73
2023-02-09T17:23:23.444Z,25.90
2023-02-09T17:25:54.950Z,25.10
2023-02-09T17:28:27.126Z,27.17
2023-02-09T17:31:03.106Z,28.97
2023-02-09T17:33:33.778Z,31.52
2023-02-09T17:38:50.092Z,32.90
2023-02-09T17:41:21.493Z,27.63
2023-02-09T17:43:50.868Z,26.95
2023-02-09T17:46:19.368Z,30.33
2023-02-09T17:48:47.501Z,34.22
2023-02-09T17:51:22.607Z,25.85
2023-02-09T17:53:50.124Z,33.55
2023-02-09T17:56:18.593Z,27.63
2023-02-09T17:58:48.385Z,31.60
2023-02-09T18:01:31.811Z,27.58
2023-02-09T18:04:02.501Z,27.08
2023-02-09T18:06:40.065Z,25.02
2023-02-09T18:09:12.655Z,33.83
2023-02-09T18:12:00.338Z,34.13
2023-02-09T18:14:32.943Z,29.83
2023-02-09T18:17:00.939Z,28.27
2023-02-09T18:19:30.414Z,31.02
2023-02-09T18:22:00.515Z,27.30
2023-02-09T18:24:31.404Z,29.42
2023-02-09T18:27:01.757Z,28.80
2023-02-09T18:29:32.135Z,32.00
2023-02-09T18:32:02.224Z,37.42
2023-02-09T18:34:38.973Z,31.10
2023-02-09T18:37:06.727Z,34.00
2023-02-09T18:39:38.815Z,30.27
2023-02-09T18:42:10.318Z,28.15
2023-02-09T18:44:40.091Z,29.90
2023-02-09T18:47:07.405Z,28.73
2023-02-09T18:49:34.585Z,33.13
2023-02-09T18:52:02.478Z,34.42
2023-02-09T18:54:33.723Z,29.50
2023-02-09T18:57:01.126Z,29.58
2023-02-09T18:59:32.306Z,32.45
2023-02-09T19:02:00.318Z,32.10
2023-02-09T19:04:27.866Z,34.65
2023-02-09T19:06:55.227Z,29.98
2023-02-09T19:09:22.540Z,34.25
2023-02-09T19:11:54.040Z,33.38
2023-02-09T19:14:39.737Z,34.03
2023-02-09T19:17:16.260Z,35.80
2023-02-09T19:19:46.106Z,35.20
2023-02-09T19:22:25.000Z,33.72
2023-02-09T19:24:58.545Z,31.25
2023-02-09T19:27:27.868Z,29.98
2023-02-09T19:29:57.779Z,30.00
2023-02-09T19:32:26.769Z,36.88
2023-02-09T19:34:54.054Z,34.08
2023-02-09T19:37:24.262Z,35.80
2023-02-09T19:40:04.034Z,37.17
2023-02-09T19:42:34.683Z,31.60
2023-02-09T19:45:02.011Z,31.65
2023-02-09T19:47:29.208Z,30.83
2023-02-09T19:49:58.281Z,36.15
2023-02-09T19:52:28.587Z,32.67
2023-02-09T19:54:57.668Z,32.22
2023-02-09T19:57:25.205Z,42.42
2023-02-09T20:00:02.418Z,35.95
2023-02-09T20:02:36.108Z,33.67
2023-02-09T20:05:03.397Z,35.35
2023-02-09T20:07:30.646Z,35.15
2023-02-09T20:09:58.156Z,34.30
2023-02-09T20:12:25.454Z,32.45
2023-02-09T20:14:56.368Z,34.33
2023-02-09T20:17:23.675Z,30.10
2023-02-09T20:19:50.833Z,30.77
2023-02-09T20:22:18.035Z,32.95
2023-02-09T20:24:45.341Z,32.65
2023-02-09T20:27:13.085Z,28.02
2023-02-09T20:29:40.263Z,28.65
2023-02-09T20:32:07.558Z,30.67
2023-02-09T20:34:34.905Z,34.70
2023-02-09T20:37:02.140Z,30.70
2023-02-09T20:39:29.485Z,28.15
2023-02-09T20:42:17.008Z,30.33
2023-02-09T20:45:03.053Z,29.25
2023-02-09T20:47:30.310Z,34.75
2023-02-09T20:50:00.154Z,28.25
2023-02-09T20:52:29.265Z,28.02
2023-02-09T20:54:56.881Z,36.17
2023-02-09T20:57:29.402Z,34.03
2023-02-09T21:00:00.677Z,37.10
2023-02-09T21:02:28.062Z,33.28
2023-02-09T21:04:57.868Z,36.53
2023-02-09T21:07:25.489Z,33.35
2023-02-09T21:09:56.295Z,27.65
2023-02-09T21:12:23.554Z,33.38
2023-02-09T21:14:50.875Z,33.67
2023-02-09T21:17:19.900Z,33.42
2023-02-09T21:19:47.069Z,33.60
2023-02-09T21:22:15.866Z,33.40
2023-02-09T21:24:43.446Z,32.13
2023-02-09T21:27:10.860Z,33.97
2023-02-09T21:29:38.044Z,26.77
2023-02-09T21:32:07.331Z,29.85
2023-02-09T21:34:34.526Z,31.58
2023-02-09T21:37:01.671Z,31.55
2023-02-09T21:39:28.882Z,32.42
2023-02-09T21:42:14.556Z,30.77
2023-02-09T21:44:41.600Z,30.90
2023-02-09T21:47:09.039Z,35.92
2023-02-09T21:49:36.260Z,30.95
2023-02-09T21:52:03.503Z,27.30
2023-02-09T21:54:33.741Z,32.05
2023-02-09T21:57:02.289Z,33.10
2023-02-09T21:59:29.911Z,31.40
2023-02-09T22:01:57.278Z,34.63
2023-02-09T22:04:25.773Z,30.48
2023-02-09T22:06:53.087Z,26.00
2023-02-09T22:09:20.660Z,28.48
2023-02-09T22:11:47.966Z,29.60
2023-02-09T22:14:15.259Z,28.55
2023-02-09T22:16:42.727Z,31.23
2023-02-09T22:19:10.050Z,35.38
2023-02-09T22:21:37.332Z,32.72
2023-02-09T22:24:05.073Z,39.08
2023-02-09T22:26:39.617Z,29.20
2023-02-09T22:29:17.327Z,30.25
2023-02-09T22:31:45.251Z,29.38
2023-02-09T22:34:14.864Z,35.00
2023-02-09T22:36:44.576Z,32.00
2023-02-09T22:39:12.020Z,31.40
2023-02-09T22:41:39.240Z,34.88
2023-02-09T22:44:10.879Z,32.72
2023-02-09T22:46:40.708Z,33.85
2023-02-09T22:49:18.437Z,29.63
2023-02-09T22:51:47.908Z,31.75
2023-02-09T22:54:17.936Z,43.95
2023-02-09T22:56:45.522Z,33.60
2023-02-09T22:59:14.859Z,29.88
2023-02-09T23:01:43.329Z,33.08
2023-02-09T23:04:11.117Z,37.67
2023-02-09T23:06:39.935Z,34.30
2023-02-09T23:09:08.252Z,27.45
2023-02-09T23:11:36.322Z,38.05
2023-02-09T23:14:10.149Z,33.78
2023-02-09T23:16:41.196Z,33.00
2023-02-09T23:19:13.285Z,36.83
2023-02-09T23:21:47.270Z,30.73
2023-02-09T23:24:18.189Z,32.00
2023-02-09T23:26:48.712Z,27.40
2023-02-09T23:29:22.485Z,31.35
2023-02-09T23:31:53.298Z,35.88
2023-02-09T23:34:23.196Z,32.35
2023-02-09T23:36:55.314Z,31.88
2023-02-09T23:39:27.562Z,31.70
2023-02-09T23:41:54.973Z,36.72
2023-02-09T23:44:27.772Z,38.22
2023-02-09T23:46:55.188Z,32.63
2023-02-09T23:49:25.348Z,31.75
2023-02-09T23:51:55.470Z,32.28
2023-02-09T23:54:22.872Z,36.30
2023-02-09T23:56:53.817Z,33.95
2023-02-09T23:59:21.203Z,34.33
